Time;durP1;ratioP1;P1;durP2;ratioP2;P2;SDS_P1;SDS_P2;PMS_P1;PMS_P2;Temp;Humidity;BMP_temperature;BMP_pressure;BME280_temperature;BME280_humidity;BME280_pressure;Samples;Min_cycle;Max_cycle;Signal;HPM_P1;HPM_P2
2023/07/27 00:01:20;;;;;;;4.20;3.60;;;;;;;14.47;78.14;100377.47;5082651;28;20224;-82
2023/07/27 00:03:47;;;;;;;4.87;3.97;;;;;;;14.47;78.26;100374.78;5082891;28;20204;-82
2023/07/27 00:06:13;;;;;;;5.03;3.80;;;;;;;14.44;78.36;100377.72;5090041;28;20208;-82
2023/07/27 00:08:41;;;;;;;5.47;3.50;;;;;;;14.41;78.62;100372.63;5089223;28;20200;-82
2023/07/27 00:11:08;;;;;;;4.33;3.80;;;;;;;14.39;78.67;100368.31;5085280;28;20202;-82
2023/07/27 00:13:35;;;;;;;5.30;3.90;;;;;;;14.36;78.79;100368.56;5089796;28;20205;-83
2023/07/27 00:16:01;;;;;;;5.00;3.80;;;;;;;14.34;78.84;100362.50;5088482;28;20219;-83
2023/07/27 00:18:27;;;;;;;4.77;4.13;;;;;;;14.33;79.13;100364.31;5083800;28;20212;-82
2023/07/27 00:20:54;;;;;;;4.73;3.97;;;;;;;14.31;79.06;100357.41;5086264;28;20235;-82
2023/07/27 00:23:20;;;;;;;5.20;4.10;;;;;;;14.31;79.01;100354.75;5075500;28;20205;-82
2023/07/27 00:25:49;;;;;;;5.87;4.00;;;;;;;14.29;79.20;100352.19;5080462;28;20223;-82
2023/07/27 00:28:15;;;;;;;4.97;4.43;;;;;;;14.29;79.59;100360.22;5094933;28;20212;-82
2023/07/27 00:30:42;;;;;;;6.73;4.70;;;;;;;14.27;79.26;100362.16;5085622;28;20199;-83
2023/07/27 00:33:08;;;;;;;5.63;4.73;;;;;;;14.25;79.37;100358.75;5092168;28;20203;-82
2023/07/27 00:35:35;;;;;;;6.63;4.60;;;;;;;14.24;79.48;100351.72;5081555;28;20239;-82
2023/07/27 00:38:01;;;;;;;6.27;4.47;;;;;;;14.24;79.64;100349.03;5086783;28;20572;-81
2023/07/27 00:40:27;;;;;;;5.13;4.30;;;;;;;14.24;79.64;100349.03;5085934;28;20232;-81
2023/07/27 00:42:55;;;;;;;5.47;4.87;;;;;;;14.24;79.47;100341.84;5082321;28;20208;-81
2023/07/27 00:45:22;;;;;;;4.73;4.23;;;;;;;14.21;79.79;100343.91;5081700;28;20236;-81
2023/07/27 00:47:48;;;;;;;5.07;4.67;;;;;;;14.21;79.96;100335.88;5084687;28;20204;-81
2023/07/27 00:50:15;;;;;;;5.50;4.17;;;;;;;14.21;79.94;100343.91;5089363;28;20235;-81
2023/07/27 00:52:42;;;;;;;6.20;5.10;;;;;;;14.21;80.21;100331.38;5086669;28;20203;-83
2023/07/27 00:55:08;;;;;;;5.10;4.60;;;;;;;14.20;80.27;100337.72;5083914;28;20220;-81
2023/07/27 00:57:35;;;;;;;6.63;5.00;;;;;;;14.21;80.36;100330.53;5086088;28;20214;-81
2023/07/27 01:00:03;;;;;;;5.60;4.60;;;;;;;14.20;80.42;100324.31;5081614;28;20806;-83
2023/07/27 01:02:30;;;;;;;6.97;5.07;;;;;;;14.16;80.70;100319.34;5084852;28;20314;-83
2023/07/27 01:04:56;;;;;;;7.07;5.23;;;;;;;14.16;80.54;100316.66;5077702;28;20688;-83
2023/07/27 01:07:23;;;;;;;5.50;4.70;;;;;;;14.15;80.41;100320.34;5084648;28;20199;-81
2023/07/27 01:09:49;;;;;;;5.73;4.10;;;;;;;14.17;80.68;100318.38;5072718;28;20209;-83
2023/07/27 01:12:21;;;;;;;6.03;4.17;;;;;;;14.18;80.35;100320.91;5084461;28;20205;-84
2023/07/27 01:14:58;;;;;;;7.83;4.47;;;;;;;14.20;80.47;100318.97;5082526;28;20220;-82
2023/07/27 01:17:31;;;;;;;5.37;4.77;;;;;;;14.20;80.44;100312.75;5085108;28;20558;-81
2023/07/27 01:20:10;;;;;;;5.93;4.93;;;;;;;14.21;80.14;100304.59;5080792;28;20253;-81
2023/07/27 01:23:26;;;;;;;6.87;4.67;;;;;;;14.23;80.29;100312.50;5089953;28;20262;-83
2023/07/27 01:26:20;;;;;;;5.17;4.40;;;;;;;14.23;79.82;100307.16;5071411;28;20231;-83
2023/07/27 01:29:03;;;;;;;4.17;3.73;;;;;;;14.24;79.49;100306.16;5083976;28;20203;-83
2023/07/27 01:31:34;;;;;;;5.93;4.20;;;;;;;14.23;79.62;100291.06;5082868;28;20201;-81
2023/07/27 01:34:04;;;;;;;5.67;3.80;;;;;;;14.25;79.44;100294.47;5088839;28;20235;-81
2023/07/27 01:36:38;;;;;;;4.33;3.77;;;;;;;14.25;79.47;100289.13;5090200;28;20215;-81
2023/07/27 01:39:07;;;;;;;4.73;4.07;;;;;;;14.26;79.59;100290.81;5084679;28;20195;-81
2023/07/27 01:41:36;;;;;;;4.23;3.80;;;;;;;14.27;79.44;100291.69;5091272;28;20228;-82
2023/07/27 01:44:02;;;;;;;4.97;3.90;;;;;;;14.26;79.25;100290.81;5090670;28;20339;-81
2023/07/27 01:46:32;;;;;;;5.40;3.40;;;;;;;14.26;79.42;100280.13;5089130;28;20197;-81
2023/07/27 01:49:00;;;;;;;4.43;3.77;;;;;;;14.25;79.00;100278.41;5087172;28;20215;-81
2023/07/27 01:51:28;;;;;;;5.10;3.17;;;;;;;14.23;79.27;100267.81;5096425;28;20578;-82
2023/07/27 01:53:55;;;;;;;3.90;3.00;;;;;;;14.24;79.24;100268.69;5085245;28;20212;-81
2023/07/27 01:56:24;;;;;;;6.10;3.03;;;;;;;14.23;79.01;100269.66;5083749;28;20233;-81
2023/07/27 01:58:52;;;;;;;4.10;3.40;;;;;;;14.22;78.86;100259.91;5087995;28;20205;-83
2023/07/27 02:01:19;;;;;;;4.47;3.93;;;;;;;14.18;79.07;100262.00;5091890;28;20227;-83
2023/07/27 02:03:48;;;;;;;4.77;3.67;;;;;;;14.13;78.90;100264.22;5088003;28;20216;-82
2023/07/27 02:06:14;;;;;;;5.43;4.00;;;;;;;14.09;78.98;100261.94;5090492;28;20201;-83
2023/07/27 02:08:40;;;;;;;4.00;3.30;;;;;;;14.05;79.42;100258.66;5087931;28;20204;-83
2023/07/27 02:11:10;;;;;;;3.93;3.53;;;;;;;14.02;79.82;100252.72;5088966;28;20208;-83
2023/07/27 02:13:45;;;;;;;6.70;3.30;;;;;;;14.00;79.82;100255.50;5086699;28;20196;-82
2023/07/27 02:16:20;;;;;;;4.93;3.30;;;;;;;13.98;79.83;100248.59;5087619;28;20193;-80
2023/07/27 02:18:51;;;;;;;4.03;3.30;;;;;;;13.98;80.11;100248.59;5086914;28;20254;-82
2023/07/27 02:21:18;;;;;;;5.40;3.70;;;;;;;13.96;80.22;100246.06;5076702;28;20220;-84
2023/07/27 02:23:46;;;;;;;4.37;3.37;;;;;;;13.95;80.44;100249.72;5089188;28;20662;-81
2023/07/27 02:26:13;;;;;;;3.40;3.10;;;;;;;13.95;80.45;100243.50;5090009;28;20207;-84
2023/07/27 02:28:39;;;;;;;5.87;3.57;;;;;;;13.95;80.48;100243.50;5091432;28;20276;-83
2023/07/27 02:31:06;;;;;;;4.13;3.57;;;;;;;13.93;80.82;100237.44;5086529;28;20656;-82
2023/07/27 02:33:32;;;;;;;4.17;3.40;;;;;;;13.94;81.17;100241.81;5089772;28;20563;-84
2023/07/27 02:36:00;;;;;;;4.57;3.67;;;;;;;13.92;81.24;100228.53;5091892;28;20224;-83
2023/07/27 02:38:26;;;;;;;4.77;3.37;;;;;;;13.92;81.36;100227.69;5094059;28;20200;-84
2023/07/27 02:40:53;;;;;;;3.63;3.30;;;;;;;13.92;81.13;100225.03;5095121;28;20223;-84
2023/07/27 02:43:19;;;;;;;5.43;3.73;;;;;;;13.92;81.32;100223.19;5090929;28;20207;-82
2023/07/27 02:45:46;;;;;;;4.33;3.73;;;;;;;13.93;81.27;100216.00;5077750;28;20231;-85
2023/07/27 02:48:12;;;;;;;4.50;3.87;;;;;;;13.93;81.29;100213.34;5079949;28;20204;-83
2023/07/27 02:50:39;;;;;;;5.10;3.40;;;;;;;13.97;81.30;100220.13;5086530;28;20191;-82
2023/07/27 02:53:07;;;;;;;4.10;3.60;;;;;;;14.00;81.58;100209.16;5087281;28;20225;-83
2023/07/27 02:55:33;;;;;;;5.53;3.70;;;;;;;14.03;81.28;100204.38;5095387;28;20250;-84
2023/07/27 02:57:59;;;;;;;4.20;3.37;;;;;;;14.05;81.37;100202.44;5079793;28;20201;-82
2023/07/27 03:00:26;;;;;;;5.03;3.70;;;;;;;14.06;81.38;100198.78;5085681;28;20204;-83
2023/07/27 03:02:52;;;;;;;4.30;3.73;;;;;;;14.06;81.36;100201.44;5075504;28;20236;-81
2023/07/27 03:05:19;;;;;;;8.00;3.73;;;;;;;14.05;81.14;100196.22;5090893;28;20217;-82
2023/07/27 03:07:45;;;;;;;3.97;3.53;;;;;;;14.05;81.01;100193.53;5089181;28;20196;-82
2023/07/27 03:10:13;;;;;;;4.60;3.80;;;;;;;14.04;81.17;100194.53;5085886;28;20201;-83
2023/07/27 03:12:39;;;;;;;3.73;3.13;;;;;;;14.00;81.27;100188.56;5077378;28;20589;-84
2023/07/27 03:15:07;;;;;;;6.23;3.77;;;;;;;13.99;81.77;100192.22;5092560;28;20834;-84
2023/07/27 03:17:33;;;;;;;5.50;3.40;;;;;;;14.00;81.32;100188.56;5089429;28;20204;-83
2023/07/27 03:20:00;;;;;;;4.07;3.30;;;;;;;14.00;81.78;100185.91;5081311;28;20665;-84
2023/07/27 03:22:26;;;;;;;4.30;3.30;;;;;;;14.03;81.73;100182.13;5076202;28;20225;-83
2023/07/27 03:24:53;;;;;;;5.03;3.63;;;;;;;14.01;81.91;100173.34;5088114;28;20704;-83
2023/07/27 03:27:20;;;;;;;6.50;3.70;;;;;;;14.00;81.94;100177.88;5085013;28;20657;-83
2023/07/27 03:29:47;;;;;;;5.10;4.00;;;;;;;14.00;81.98;100177.88;5080571;28;20590;-83
2023/07/27 03:32:13;;;;;;;5.23;3.90;;;;;;;13.99;82.21;100165.44;5081328;28;20192;-83
2023/07/27 03:34:40;;;;;;;4.33;3.93;;;;;;;14.00;82.40;100171.66;5087025;28;20227;-83
2023/07/27 03:37:06;;;;;;;4.93;3.90;;;;;;;14.03;82.74;100166.06;5082427;28;20269;-83
2023/07/27 03:39:33;;;;;;;4.77;4.27;;;;;;;14.04;82.60;100155.22;5089649;28;20598;-83
2023/07/27 03:41:59;;;;;;;4.57;3.50;;;;;;;14.07;82.85;100159.47;5088361;28;20587;-83
2023/07/27 03:44:27;;;;;;;4.93;4.10;;;;;;;14.09;82.78;100158.34;5083559;28;20228;-83
2023/07/27 03:46:54;;;;;;;5.93;3.50;;;;;;;14.10;82.52;100157.38;5089955;28;20204;-84
2023/07/27 03:49:20;;;;;;;4.13;3.30;;;;;;;14.12;82.69;100168.81;5090731;28;20202;-83
2023/07/27 03:51:46;;;;;;;5.57;4.03;;;;;;;14.14;83.01;100171.34;5080422;28;20205;-84
2023/07/27 03:54:13;;;;;;;4.13;3.73;;;;;;;14.16;82.58;100155.97;5086785;28;20224;-84
2023/07/27 03:56:39;;;;;;;5.47;4.37;;;;;;;14.17;82.62;100147.81;5090970;28;20200;-84
2023/07/27 03:59:06;;;;;;;4.00;3.60;;;;;;;14.18;82.63;100143.31;5084272;28;20203;-84
2023/07/27 04:01:34;;;;;;;4.00;3.60;;;;;;;14.19;82.62;100147.69;5092441;28;20228;-83
2023/07/27 04:04:00;;;;;;;4.40;3.70;;;;;;;14.21;82.99;100140.38;5086270;28;20208;-83
2023/07/27 04:06:27;;;;;;;3.67;2.97;;;;;;;14.21;83.01;100141.22;5084221;28;20215;-83
2023/07/27 04:08:53;;;;;;;4.27;3.00;;;;;;;14.22;83.28;100139.38;5090957;28;20203;-83
2023/07/27 04:11:20;;;;;;;3.80;3.03;;;;;;;14.24;83.10;100132.91;5092342;28;20208;-83
2023/07/27 04:13:46;;;;;;;4.13;3.50;;;;;;;14.25;83.11;100134.63;5081996;28;20208;-83
2023/07/27 04:16:13;;;;;;;4.43;3.43;;;;;;;14.29;83.65;100135.22;5087658;28;20656;-82
2023/07/27 04:18:40;;;;;;;3.17;2.87;;;;;;;14.31;83.67;100135.09;5082986;28;20779;-82
2023/07/27 04:21:07;;;;;;;3.37;2.80;;;;;;;14.34;83.64;100135.63;5088202;28;20790;-82
2023/07/27 04:23:34;;;;;;;3.93;3.07;;;;;;;14.37;83.67;100131.84;5083127;28;20231;-82
2023/07/27 04:26:02;;;;;;;3.93;2.80;;;;;;;14.38;83.51;100141.56;5080666;28;20233;-82
2023/07/27 04:28:28;;;;;;;3.73;2.87;;;;;;;14.41;83.50;100142.19;5083983;28;20873;-82
2023/07/27 04:30:55;;;;;;;3.53;3.10;;;;;;;14.44;83.79;100141.09;5089299;28;20661;-82
2023/07/27 04:33:21;;;;;;;3.60;2.57;;;;;;;14.48;83.79;100132.66;5085672;28;20673;-82
2023/07/27 04:35:49;;;;;;;3.40;2.50;;;;;;;14.53;82.83;100130.41;5085852;28;20592;-82
2023/07/27 04:38:16;;;;;;;3.13;2.47;;;;;;;14.59;82.90;100119.16;5085900;28;20596;-82
2023/07/27 04:40:42;;;;;;;3.87;2.70;;;;;;;14.64;82.51;100126.78;5093103;28;20208;-82
2023/07/27 04:43:08;;;;;;;2.97;2.67;;;;;;;14.68;82.00;100122.00;5083188;28;20233;-82
2023/07/27 04:45:35;;;;;;;3.13;2.57;;;;;;;14.72;82.00;100113.53;5088780;28;20228;-82
2023/07/27 04:48:03;;;;;;;3.80;3.20;;;;;;;14.75;81.52;100107.06;5081775;28;20205;-82
2023/07/27 04:50:29;;;;;;;4.33;2.70;;;;;;;14.78;81.50;100104.13;5084895;28;20205;-82
2023/07/27 04:52:57;;;;;;;2.93;2.33;;;;;;;14.82;81.68;100100.19;5086586;28;20212;-82
2023/07/27 04:55:24;;;;;;;3.73;2.60;;;;;;;14.83;81.37;100107.25;5084560;28;20845;-82
2023/07/27 04:57:50;;;;;;;3.27;2.27;;;;;;;14.88;81.11;100110.34;5090547;28;20584;-82
2023/07/27 05:00:17;;;;;;;4.80;2.60;;;;;;;14.90;80.85;100103.84;5084029;28;20212;-82
2023/07/27 05:02:44;;;;;;;3.53;2.33;;;;;;;14.96;80.54;100101.59;5080662;28;20221;-82
2023/07/27 05:05:10;;;;;;;2.90;2.50;;;;;;;14.97;80.15;100104.16;5075216;28;20221;-83
2023/07/27 05:07:37;;;;;;;3.20;2.37;;;;;;;15.01;79.84;100094.00;5080244;28;20201;-82
2023/07/27 05:10:05;;;;;;;4.07;2.67;;;;;;;15.03;79.88;100092.88;5087013;28;20212;-82
2023/07/27 05:12:32;;;;;;;2.53;2.33;;;;;;;15.06;79.50;100086.38;5085772;28;20218;-82
2023/07/27 05:14:59;;;;;;;2.53;2.33;;;;;;;15.11;79.18;100076.94;5086049;28;20232;-82
2023/07/27 05:17:25;;;;;;;3.17;2.70;;;;;;;15.12;79.12;100075.94;5085936;28;20200;-82
2023/07/27 05:19:53;;;;;;;2.97;1.90;;;;;;;15.13;78.72;100074.97;5083043;28;20204;-82
2023/07/27 05:22:19;;;;;;;2.33;2.10;;;;;;;15.19;78.40;100076.25;5087365;28;20870;-82
2023/07/27 05:24:46;;;;;;;3.40;2.10;;;;;;;15.20;78.20;100078.78;5085814;28;20228;-82
2023/07/27 05:27:14;;;;;;;2.33;2.13;;;;;;;15.22;78.43;100087.53;5083220;28;20660;-82
2023/07/27 05:29:41;;;;;;;3.97;2.83;;;;;;;15.24;78.35;100085.53;5084665;28;20201;-82
2023/07/27 05:32:09;;;;;;;2.77;2.30;;;;;;;15.27;77.93;100084.41;5082178;28;20264;-82
2023/07/27 05:34:35;;;;;;;4.20;2.40;;;;;;;15.27;77.62;100085.25;5087240;28;20619;-84
2023/07/27 05:37:02;;;;;;;2.80;2.30;;;;;;;15.31;77.38;100087.66;5086135;28;20207;-82
2023/07/27 05:39:29;;;;;;;2.23;2.03;;;;;;;15.34;77.37;100095.44;5086882;28;20203;-82
2023/07/27 05:41:55;;;;;;;2.63;2.17;;;;;;;15.36;77.50;100093.47;5083937;28;20659;-81
2023/07/27 05:44:23;;;;;;;2.47;2.27;;;;;;;15.37;77.39;100096.00;5080665;28;20697;-80
2023/07/27 05:46:54;;;;;;;2.80;2.50;;;;;;;15.39;77.49;100095.88;5082045;28;20666;-82
2023/07/27 05:49:21;;;;;;;3.33;2.40;;;;;;;15.42;77.71;100096.41;5087612;28;20203;-81
2023/07/27 05:51:47;;;;;;;2.53;2.33;;;;;;;15.42;77.40;100100.94;5078784;28;20203;-81
2023/07/27 05:54:14;;;;;;;3.27;2.40;;;;;;;15.47;77.52;100102.22;5086474;28;20241;-82
2023/07/27 05:56:40;;;;;;;2.53;2.20;;;;;;;15.50;77.47;100090.34;5090576;28;20666;-81
2023/07/27 05:59:07;;;;;;;3.43;2.17;;;;;;;15.52;77.58;100093.75;5077664;28;20233;-81
2023/07/27 06:01:35;;;;;;;2.50;2.10;;;;;;;15.58;77.38;100093.22;5081710;28;20208;-81
2023/07/27 06:04:03;;;;;;;3.87;2.70;;;;;;;15.63;77.05;100090.94;5075275;28;20237;-82
2023/07/27 06:06:29;;;;;;;3.43;2.20;;;;;;;15.67;76.72;100096.88;5084059;28;20202;-82
2023/07/27 06:08:56;;;;;;;2.27;2.07;;;;;;;15.72;76.09;100098.16;5088901;28;20216;-81
2023/07/27 06:11:23;;;;;;;3.07;1.87;;;;;;;15.77;76.01;100100.38;5088999;28;20806;-81
2023/07/27 06:13:49;;;;;;;2.97;2.20;;;;;;;15.79;75.71;100096.56;5083075;28;20221;-81
2023/07/27 06:16:16;;;;;;;3.00;2.40;;;;;;;15.80;75.64;100100.94;5080548;28;20200;-81
2023/07/27 06:18:44;;;;;;;3.83;2.30;;;;;;;15.85;75.46;100097.84;5085779;28;20700;-81
2023/07/27 06:21:10;;;;;;;2.17;1.97;;;;;;;15.85;75.29;100101.38;5086224;28;20670;-82
2023/07/27 06:23:37;;;;;;;2.90;2.20;;;;;;;15.89;75.20;100094.72;5087192;28;20221;-81
2023/07/27 06:26:03;;;;;;;3.23;1.93;;;;;;;15.95;74.98;100098.66;5087230;28;20231;-81
2023/07/27 06:28:30;;;;;;;3.70;2.57;;;;;;;15.96;75.37;100097.66;5079546;28;20198;-82
2023/07/27 06:30:56;;;;;;;2.87;1.93;;;;;;;16.01;74.98;100094.53;5086497;28;20216;-81
2023/07/27 06:33:22;;;;;;;2.73;2.17;;;;;;;16.02;75.33;100096.25;5086796;28;20196;-81
2023/07/27 06:35:51;;;;;;;4.70;2.47;;;;;;;16.07;75.24;100096.66;5077495;28;20593;-81
2023/07/27 06:38:17;;;;;;;3.50;1.70;;;;;;;16.09;74.91;100090.16;5091252;28;20198;-82
2023/07/27 06:40:44;;;;;;;2.83;2.30;;;;;;;16.13;74.71;100088.84;5086198;28;20222;-82
2023/07/27 06:43:10;;;;;;;3.60;1.97;;;;;;;16.17;74.25;100090.25;5090902;28;20223;-82
2023/07/27 06:45:51;;;;;;;4.57;2.70;;;;;;;16.19;74.14;100087.41;5088656;28;20238;-82
2023/07/27 06:48:17;;;;;;;2.43;2.00;;;;;;;16.23;74.13;100091.50;5082680;28;20201;-82
2023/07/27 06:50:44;;;;;;;3.40;2.20;;;;;;;16.26;74.35;100085.84;5086072;28;20205;-82
2023/07/27 06:53:12;;;;;;;2.70;2.33;;;;;;;16.31;74.42;100091.59;5090910;28;20235;-82
2023/07/27 06:55:41;;;;;;;2.37;2.07;;;;;;;16.35;74.81;100093.00;5085648;28;20228;-81
2023/07/27 06:58:10;;;;;;;3.43;2.40;;;;;;;16.43;75.04;100094.97;5075502;28;20650;-81
2023/07/27 07:00:37;;;;;;;2.93;2.40;;;;;;;16.49;75.46;100087.16;5086945;28;20203;-81
2023/07/27 07:03:06;;;;;;;3.03;2.73;;;;;;;16.50;75.42;100091.53;5090221;28;20211;-81
2023/07/27 07:05:33;;;;;;;4.17;2.30;;;;;;;16.50;75.40;100094.22;5081994;28;20309;-82
2023/07/27 07:07:59;;;;;;;3.50;2.40;;;;;;;16.51;75.61;100095.91;5091947;28;20208;-81
2023/07/27 07:10:30;;;;;;;2.60;2.30;;;;;;;16.52;76.03;100100.28;5083639;28;20289;-81
2023/07/27 07:12:57;;;;;;;5.67;2.37;;;;;;;16.52;76.05;100099.44;5091098;28;20231;-82
2023/07/27 07:15:23;;;;;;;3.97;2.40;;;;;;;16.52;76.25;100094.91;5087455;28;20227;-81
2023/07/27 07:17:50;;;;;;;4.20;2.30;;;;;;;16.48;76.49;100088.13;5084512;28;20203;-82
2023/07/27 07:20:17;;;;;;;3.93;2.03;;;;;;;16.48;76.80;100082.75;5084064;28;20306;-81
2023/07/27 07:22:44;;;;;;;3.43;2.27;;;;;;;16.47;77.30;100075.72;5089204;28;20618;-82
2023/07/27 07:25:10;;;;;;;4.40;1.97;;;;;;;16.46;77.69;100075.88;5085188;28;20228;-82
2023/07/27 07:27:38;;;;;;;4.87;2.63;;;;;;;16.42;78.13;100067.25;5085947;28;20200;-83
2023/07/27 07:30:06;;;;;;;4.43;2.90;;;;;;;16.42;78.54;100075.31;5094921;28;20204;-82
2023/07/27 07:32:33;;;;;;;3.90;2.50;;;;;;;16.42;78.90;100074.47;5089936;28;20254;-82
2023/07/27 07:35:00;;;;;;;3.53;2.60;;;;;;;16.37;79.47;100074.91;5083089;28;20704;-82
2023/07/27 07:37:27;;;;;;;2.93;2.20;;;;;;;16.37;79.83;100069.53;5087608;28;20212;-81
2023/07/27 07:39:53;;;;;;;3.27;2.50;;;;;;;16.34;80.60;100056.38;5086796;28;20219;-81
2023/07/27 07:42:19;;;;;;;3.00;2.57;;;;;;;16.33;81.02;100055.53;5085261;28;20208;-81
2023/07/27 07:44:47;;;;;;;3.43;2.60;;;;;;;16.34;81.76;100064.44;5091610;28;20227;-81
2023/07/27 07:47:14;;;;;;;3.50;2.40;;;;;;;16.32;82.30;100061.06;5079325;28;20673;-81
2023/07/27 07:49:40;;;;;;;4.30;2.87;;;;;;;16.31;82.96;100054.84;5089074;28;20203;-81
2023/07/27 07:52:07;;;;;;;4.93;2.93;;;;;;;16.31;83.51;100060.22;5089780;28;20765;-82
2023/07/27 07:54:34;;;;;;;3.77;2.87;;;;;;;16.33;84.26;100054.69;5085691;28;20596;-81
2023/07/27 07:57:00;;;;;;;3.83;2.80;;;;;;;16.34;84.70;100061.75;5090645;28;20205;-82
2023/07/27 07:59:27;;;;;;;3.57;2.57;;;;;;;16.35;84.88;100055.38;5090267;28;20233;-81
2023/07/27 08:01:54;;;;;;;3.87;2.80;;;;;;;16.36;85.18;100051.72;5087807;28;20218;-80
2023/07/27 08:04:21;;;;;;;4.83;3.20;;;;;;;16.35;85.66;100050.00;5079538;28;20228;-80
2023/07/27 08:06:47;;;;;;;4.23;3.03;;;;;;;16.33;85.73;100041.25;5091316;28;20218;-81
2023/07/27 08:09:14;;;;;;;3.67;2.97;;;;;;;16.33;85.84;100038.56;5091045;28;20805;-81
2023/07/27 08:11:45;;;;;;;3.20;2.77;;;;;;;16.30;86.04;100036.19;5078170;28;20235;-81
2023/07/27 08:14:12;;;;;;;3.33;2.97;;;;;;;16.25;86.14;100022.34;5072702;28;20231;-81
2023/07/27 08:16:39;;;;;;;3.23;2.70;;;;;;;16.22;86.72;100026.19;5075270;28;20199;-81
2023/07/27 08:19:07;;;;;;;3.40;3.10;;;;;;;16.22;87.50;100025.34;5092927;28;20576;-81
2023/07/27 08:21:33;;;;;;;5.10;2.87;;;;;;;16.20;87.64;100012.03;5092464;28;20233;-81
2023/07/27 08:24:00;;;;;;;5.03;3.27;;;;;;;16.20;88.12;100009.34;5093207;28;20579;-82
2023/07/27 08:26:28;;;;;;;3.47;3.17;;;;;;;16.17;88.54;99995.38;5093085;28;20209;-82
2023/07/27 08:28:55;;;;;;;4.27;3.27;;;;;;;16.15;88.78;99989.28;5092189;28;20260;-81
2023/07/27 08:31:22;;;;;;;3.83;3.43;;;;;;;16.13;89.25;99984.06;5093120;28;20256;-82
2023/07/27 08:33:48;;;;;;;3.83;3.07;;;;;;;16.12;89.33;99984.25;5092974;28;20716;-83
2023/07/27 08:36:16;;;;;;;5.93;3.10;;;;;;;16.10;90.07;99986.22;5092717;28;20559;-82
2023/07/27 08:38:43;;;;;;;4.13;3.03;;;;;;;16.11;90.16;99971.81;5092695;28;20237;-82
2023/07/27 08:41:09;;;;;;;4.23;3.67;;;;;;;16.11;90.49;99972.66;5093020;28;20216;-82
2023/07/27 08:43:38;;;;;;;4.33;3.20;;;;;;;16.10;90.76;99959.38;5093376;28;20698;-82
2023/07/27 08:46:05;;;;;;;4.03;3.13;;;;;;;16.08;91.12;99950.63;5092883;28;20235;-82
2023/07/27 08:48:33;;;;;;;4.03;3.57;;;;;;;16.06;91.41;99948.06;5072724;28;20296;-82
2023/07/27 08:51:03;;;;;;;4.10;3.07;;;;;;;16.04;91.41;99942.00;5079717;28;20206;-82
2023/07/27 08:53:31;;;;;;;5.23;3.40;;;;;;;16.04;91.35;99927.72;5089512;28;20229;-81
2023/07/27 08:55:58;;;;;;;6.57;3.43;;;;;;;16.02;91.55;99930.56;5088022;28;20268;-82
2023/07/27 08:58:25;;;;;;;4.00;3.47;;;;;;;16.03;91.72;99926.03;5086353;28;20562;-82
2023/07/27 09:00:52;;;;;;;4.97;3.53;;;;;;;16.06;92.30;99925.75;5090346;28;20286;-82
2023/07/27 09:03:19;;;;;;;5.57;3.77;;;;;;;16.09;92.64;99920.06;5075249;28;20668;-82
2023/07/27 09:05:55;;;;;;;6.63;3.50;;;;;;;16.08;92.46;99923.75;5081190;28;20218;-82
2023/07/27 09:08:22;;;;;;;6.03;3.90;;;;;;;16.08;92.39;99910.31;5083970;28;20204;-81
2023/07/27 09:10:50;;;;;;;3.80;3.50;;;;;;;16.11;92.48;99918.09;5087048;28;20207;-82
2023/07/27 09:13:17;;;;;;;4.60;3.60;;;;;;;16.13;92.33;99910.69;5081565;28;20245;-82
2023/07/27 09:15:45;;;;;;;4.03;3.33;;;;;;;16.15;91.77;99914.06;5084181;28;20362;-83
2023/07/27 09:18:13;;;;;;;3.57;3.27;;;;;;;16.15;91.39;99908.69;5083859;28;20543;-83
2023/07/27 09:20:40;;;;;;;5.77;3.40;;;;;;;16.15;91.62;99908.69;5083871;28;20203;-82
2023/07/27 09:23:07;;;;;;;4.87;3.40;;;;;;;16.19;92.00;99910.94;5097112;28;20208;-82
2023/07/27 09:25:33;;;;;;;4.77;3.63;;;;;;;16.22;91.95;99912.50;5091376;28;20255;-82
2023/07/27 09:28:01;;;;;;;3.93;3.53;;;;;;;16.21;91.68;99924.22;5086000;28;20205;-82
2023/07/27 09:30:28;;;;;;;3.50;3.07;;;;;;;16.22;91.43;99916.03;5093027;28;20208;-81
2023/07/27 09:32:54;;;;;;;3.83;3.07;;;;;;;16.24;91.40;99923.94;5085764;28;20215;-82
2023/07/27 09:35:22;;;;;;;4.17;3.47;;;;;;;16.25;91.93;99920.25;5076520;28;20232;-81
2023/07/27 09:37:50;;;;;;;5.00;3.77;;;;;;;16.27;92.61;99915.56;5076749;28;20212;-83
2023/07/27 09:40:18;;;;;;;5.10;3.40;;;;;;;16.32;93.26;99914.09;5076852;28;20572;-82
2023/07/27 09:42:46;;;;;;;5.57;3.70;;;;;;;16.32;93.54;99919.47;5086547;28;20211;-82
2023/07/27 09:45:15;;;;;;;4.40;4.00;;;;;;;16.34;93.95;99905.91;5084464;28;20676;-81
2023/07/27 09:47:41;;;;;;;4.80;3.80;;;;;;;16.36;94.41;99900.38;5088703;28;20225;-80
2023/07/27 09:50:10;;;;;;;3.47;3.07;;;;;;;16.38;94.65;99893.00;5094878;28;20575;-80
2023/07/27 09:52:38;;;;;;;3.67;3.33;;;;;;;16.35;94.84;99883.41;5092021;28;20226;-81
2023/07/27 09:55:05;;;;;;;5.60;3.30;;;;;;;16.33;95.19;99875.50;5082185;28;20235;-82
2023/07/27 09:57:31;;;;;;;3.93;3.23;;;;;;;16.31;95.15;99885.53;5086438;28;20207;-81
2023/07/27 09:59:58;;;;;;;5.47;3.53;;;;;;;16.29;95.67;99878.66;5094875;28;20209;-82
2023/07/27 10:02:26;;;;;;;4.13;3.73;;;;;;;16.27;95.95;99867.22;5087179;28;20215;-82
2023/07/27 10:04:52;;;;;;;5.80;4.00;;;;;;;16.25;95.97;99862.00;5094647;28;20228;-81
2023/07/27 10:07:20;;;;;;;3.40;3.10;;;;;;;16.24;96.19;99860.28;5086596;28;20296;-81
2023/07/27 10:09:46;;;;;;;5.97;3.63;;;;;;;16.24;96.63;99854.09;5082708;28;20215;-81
2023/07/27 10:12:27;;;;;;;6.10;3.90;;;;;;;16.24;97.03;99844.19;5102689;28;20685;-81
2023/07/27 10:15:21;;;;;;;3.47;3.17;;;;;;;16.26;97.40;99846.72;5076085;28;20310;-81
2023/07/27 10:17:52;;;;;;;3.60;3.20;;;;;;;16.26;97.29;99844.03;5079172;28;20203;-81
2023/07/27 10:20:24;;;;;;;5.43;3.60;;;;;;;16.27;97.92;99837.66;5091230;28;20212;-81
2023/07/27 10:22:52;;;;;;;3.00;2.70;;;;;;;16.27;98.16;99845.72;5083659;28;20198;-82
2023/07/27 10:25:18;;;;;;;3.50;3.20;;;;;;;16.29;98.53;99836.50;5090787;28;20271;-82
2023/07/27 10:27:55;;;;;;;4.27;3.53;;;;;;;16.29;98.70;99835.66;5089743;28;20218;-81
2023/07/27 10:30:22;;;;;;;3.43;2.87;;;;;;;16.31;98.94;99841.69;5092963;28;20234;-81
2023/07/27 10:33:09;;;;;;;3.73;2.53;;;;;;;16.35;99.38;99829.66;5086161;28;20818;-80
2023/07/27 10:36:03;;;;;;;3.07;2.77;;;;;;;16.37;99.45;99827.66;5089837;28;20241;-80
2023/07/27 10:38:32;;;;;;;3.37;2.87;;;;;;;16.40;99.88;99824.69;5084961;28;20590;-81
2023/07/27 10:41:11;;;;;;;3.73;2.93;;;;;;;16.43;100.00;99816.31;5081001;28;20213;-81
2023/07/27 10:43:38;;;;;;;2.73;2.53;;;;;;;16.50;100.00;99803.91;5086453;28;20251;-81
2023/07/27 10:46:22;;;;;;;3.03;2.73;;;;;;;16.51;100.00;99810.97;5088618;28;20241;-80
2023/07/27 10:48:58;;;;;;;3.83;3.03;;;;;;;16.52;100.00;99809.13;5088099;28;20252;-80
2023/07/27 10:51:25;;;;;;;2.83;1.80;;;;;;;16.54;100.00;99804.47;5089481;28;20207;-80
2023/07/27 10:53:52;;;;;;;3.63;2.83;;;;;;;16.53;100.00;99806.31;5081933;28;20918;-81
2023/07/27 10:56:19;;;;;;;5.00;2.83;;;;;;;16.54;100.00;99797.25;5089371;28;20217;-83
2023/07/27 10:58:46;;;;;;;4.93;2.40;;;;;;;16.54;100.00;99794.56;5088176;28;20207;-82
2023/07/27 11:01:12;;;;;;;5.07;2.30;;;;;;;16.56;100.00;99792.56;5083576;28;20204;-82
2023/07/27 11:03:39;;;;;;;2.27;2.07;;;;;;;16.56;100.00;99789.88;5093613;28;20271;-82
2023/07/27 11:06:07;;;;;;;5.20;2.80;;;;;;;16.57;100.00;99786.19;5080388;28;20224;-80
2023/07/27 11:08:36;;;;;;;2.47;2.10;;;;;;;16.59;100.00;99789.56;5088538;28;20460;-80
2023/07/27 11:11:14;;;;;;;3.17;2.30;;;;;;;16.58;100.00;99789.72;5083803;28;20236;-80
2023/07/27 11:13:40;;;;;;;2.47;2.00;;;;;;;16.59;100.00;99784.19;5086659;28;20214;-82
2023/07/27 11:16:07;;;;;;;1.93;1.83;;;;;;;16.63;100.00;99784.75;5093763;28;20223;-82
2023/07/27 11:18:34;;;;;;;3.00;1.80;;;;;;;16.62;100.00;99786.56;5080370;28;20665;-82
2023/07/27 11:21:02;;;;;;;1.90;1.60;;;;;;;16.63;100.00;99784.75;5078222;28;20204;-83
2023/07/27 11:23:30;;;;;;;1.80;1.70;;;;;;;16.65;100.00;99770.16;5092585;28;21481;-84
2023/07/27 11:25:57;;;;;;;1.60;1.40;;;;;;;16.66;100.00;99779.03;5086111;28;21426;-84
2023/07/27 11:28:24;;;;;;;1.40;1.30;;;;;;;16.67;100.00;99765.44;5091144;28;20197;-84
2023/07/27 11:30:52;;;;;;;1.93;1.77;;;;;;;16.70;100.00;99768.81;5090370;28;20257;-84